Time;durP1;ratioP1;P1;durP2;ratioP2;P2;SDS_P1;SDS_P2;PMS_P1;PMS_P2;Temp;Humidity;BMP_temperature;BMP_pressure;BME280_temperature;BME280_humidity;BME280_pressure;Samples;Min_cycle;Max_cycle;Signal;HPM_P1;HPM_P2
2022/03/04 00:02:27;;;;;;;;;;;;;;;-1.54;100.00;98642.81;10363713;28;19983;-76
2022/03/04 00:07:29;;;;;;;;;;;;;;;-1.44;100.00;98650.88;10326356;28;20465;-77
2022/03/04 00:12:29;;;;;;;;;;;;;;;-1.49;100.00;98656.84;10340235;28;19922;-77
2022/03/04 00:17:30;;;;;;;;;;;;;;;-1.57;100.00;98659.06;10337068;28;19927;-76
2022/03/04 00:22:30;;;;;;;;;;;;;;;-1.60;100.00;98651.63;10335504;28;19981;-78
2022/03/04 00:27:31;;;;;;;;;;;;;;;-1.69;100.00;98655.66;10328276;28;19929;-77
2022/03/04 00:32:32;;;;;;;;;;;;;;;-1.87;100.00;98656.63;10355424;28;19934;-77
2022/03/04 00:37:32;;;;;;;;;;;;;;;-2.09;100.00;98670.41;10354787;28;19925;-78
2022/03/04 00:42:33;;;;;;;;;;;;;;;-2.05;100.00;98660.22;10344958;28;19925;-76
2022/03/04 00:47:35;;;;;;;;;;;;;;;-2.34;100.00;98669.84;10358623;28;19957;-76
2022/03/04 00:52:35;;;;;;;;;;;;;;;-2.40;100.00;98673.38;10352287;28;20024;-77
2022/03/04 00:57:38;;;;;;;;;;;;;;;-2.29;100.00;98675.22;10329794;28;19930;-78
2022/03/04 01:02:38;;;;;;;;;;;;;;;-2.28;100.00;98668.94;10350709;28;19929;-77
2022/03/04 01:07:39;;;;;;;;;;;;;;;-2.32;100.00;98670.41;10345933;28;19972;-77
2022/03/04 01:12:39;;;;;;;;;;;;;;;-2.27;100.00;98675.81;10371480;28;19926;-78
2022/03/04 01:17:39;;;;;;;;;;;;;;;-2.23;100.00;98671.66;10341288;28;19933;-76
2022/03/04 01:22:40;;;;;;;;;;;;;;;-2.33;100.00;98660.94;10351802;28;20458;-77
2022/03/04 01:27:40;;;;;;;;;;;;;;;-2.44;100.00;98667.00;10338342;28;20035;-77
2022/03/04 01:32:41;;;;;;;;;;;;;;;-2.49;100.00;98659.00;10342751;28;19932;-77
2022/03/04 01:37:41;;;;;;;;;;;;;;;-2.55;100.00;98663.34;10338385;28;19989;-78
2022/03/04 01:42:42;;;;;;;;;;;;;;;-2.63;100.00;98653.19;10364588;28;19953;-77
2022/03/04 01:47:42;;;;;;;;;;;;;;;-2.69;100.00;98648.81;10335701;28;19926;-77
2022/03/04 01:52:42;;;;;;;;;;;;;;;-2.88;100.00;98656.00;10360727;28;20435;-77
2022/03/04 01:57:43;;;;;;;;;;;;;;;-2.97;100.00;98647.66;10348264;28;19929;-77
2022/03/04 02:02:45;;;;;;;;;;;;;;;-2.95;100.00;98648.22;10356588;28;19928;-77
2022/03/04 02:07:45;;;;;;;;;;;;;;;-2.91;100.00;98641.50;10355584;28;20004;-76
2022/03/04 02:12:46;;;;;;;;;;;;;;;-2.94;100.00;98641.16;10331111;28;19991;-78
2022/03/04 02:17:46;;;;;;;;;;;;;;;-2.88;100.00;98642.88;10363241;28;20016;-77
2022/03/04 02:22:46;;;;;;;;;;;;;;;-3.00;100.00;98632.38;10362606;28;19926;-77
2022/03/04 02:27:47;;;;;;;;;;;;;;;-3.12;100.00;98639.41;10350202;28;19953;-77
2022/03/04 02:32:47;;;;;;;;;;;;;;;-3.33;100.00;98632.84;10387232;28;19932;-78
2022/03/04 02:37:47;;;;;;;;;;;;;;;-3.37;100.00;98630.91;10385257;28;19920;-78
2022/03/04 02:42:48;;;;;;;;;;;;;;;-3.47;100.00;98627.00;10361572;28;19953;-77
2022/03/04 02:47:48;;;;;;;;;;;;;;;-3.66;100.00;98632.50;10387688;28;19936;-78
2022/03/04 02:52:49;;;;;;;;;;;;;;;-3.74;100.00;98631.81;10368665;28;20129;-76
2022/03/04 02:57:49;;;;;;;;;;;;;;;-3.82;100.00;98633.94;10365169;28;20378;-78
2022/03/04 03:02:51;;;;;;;;;;;;;;;-3.84;100.00;98643.81;10354869;28;19925;-78
2022/03/04 03:07:52;;;;;;;;;;;;;;;-3.82;100.00;98654.91;10340890;28;20383;-77
2022/03/04 03:12:52;;;;;;;;;;;;;;;-3.78;100.00;98650.81;10335009;28;19936;-77
2022/03/04 03:17:53;;;;;;;;;;;;;;;-3.75;100.00;98659.06;10338366;28;20487;-78
2022/03/04 03:22:54;;;;;;;;;;;;;;;-3.73;100.00;98650.97;10358945;28;19940;-78
2022/03/04 03:27:55;;;;;;;;;;;;;;;-3.76;100.00;98656.63;10352611;28;19921;-79
2022/03/04 03:32:56;;;;;;;;;;;;;;;-3.88;100.00;98653.16;10354482;28;19926;-80
2022/03/04 03:37:56;;;;;;;;;;;;;;;-3.98;100.00;98655.50;10336178;28;19945;-81
2022/03/04 03:42:58;;;;;;;;;;;;;;;-3.97;100.00;98654.47;10341297;28;19925;-81
2022/03/04 03:48:00;;;;;;;;;;;;;;;-3.97;100.00;98659.72;10365353;28;19976;-78
2022/03/04 03:53:02;;;;;;;;;;;;;;;-3.93;100.00;98664.31;10360336;28;19926;-75
2022/03/04 03:58:02;;;;;;;;;;;;;;;-4.00;100.00;98666.22;10356194;28;19921;-77
2022/03/04 04:03:03;;;;;;;;;;;;;;;-4.12;100.00;98673.19;10373748;28;19945;-77
2022/03/04 04:08:05;;;;;;;;;;;;;;;-4.07;100.00;98675.97;10329921;28;19944;-78
2022/03/04 04:13:05;;;;;;;;;;;;;;;-4.11;100.00;98678.22;10344798;28;20336;-78
2022/03/04 04:18:06;;;;;;;;;;;;;;;-4.14;100.00;98688.34;10354836;28;19921;-76
2022/03/04 04:23:06;;;;;;;;;;;;;;;-4.15;100.00;98687.53;10338162;28;19929;-77
2022/03/04 04:28:07;;;;;;;;;;;;;;;-4.17;100.00;98697.44;10367508;28;20308;-77
2022/03/04 04:33:07;;;;;;;;;;;;;;;-4.16;100.00;98703.47;10342974;28;19930;-78
2022/03/04 04:38:09;;;;;;;;;;;;;;;-4.26;100.00;98698.75;10338682;28;19925;-77
2022/03/04 04:43:09;;;;;;;;;;;;;;;-4.17;100.00;98697.44;10331326;28;19925;-78
2022/03/04 04:48:10;;;;;;;;;;;;;;;-4.06;100.00;98696.72;10311067;28;19932;-76
2022/03/04 04:53:10;;;;;;;;;;;;;;;-4.04;100.00;98696.50;10350801;28;19949;-76
2022/03/04 04:58:11;;;;;;;;;;;;;;;-4.25;100.00;98702.16;10350920;28;19987;-77
2022/03/04 05:03:11;;;;;;;;;;;;;;;-4.37;100.00;98710.75;10363543;28;20001;-75
2022/03/04 05:08:12;;;;;;;;;;;;;;;-4.39;100.00;98707.53;10368159;28;19984;-77
2022/03/04 05:13:14;;;;;;;;;;;;;;;-3.90;100.00;98707.66;10378393;28;20031;-78
2022/03/04 05:18:14;;;;;;;;;;;;;;;-3.88;100.00;98706.41;10386255;28;19936;-77
2022/03/04 05:23:59;;;;;;;;;;;;;;;-3.84;100.00;98715.44;10342117;28;19932;-77
2022/03/04 05:28:37;;;;;;;;;;;;;;;-3.75;100.00;98715.94;10366419;28;19926;-79
2022/03/04 05:33:39;;;;;;;;;;;;;;;-3.77;100.00;98723.22;10372717;28;19976;-77
2022/03/04 05:38:40;;;;;;;;;;;;;;;-3.87;100.00;98725.56;10343466;28;19986;-78
2022/03/04 05:43:42;;;;;;;;;;;;;;;-3.89;100.00;98730.22;10355865;28;19933;-78
2022/03/04 05:48:42;;;;;;;;;;;;;;;-3.79;100.00;98746.25;10375054;28;19937;-79
2022/03/04 05:53:43;;;;;;;;;;;;;;;-3.64;100.00;98745.91;10344529;28;19925;-78
2022/03/04 05:58:45;;;;;;;;;;;;;;;-3.39;100.00;98754.44;10351132;28;20206;-80
2022/03/04 06:03:46;;;;;;;;;;;;;;;-3.19;100.00;98764.72;10371689;28;19926;-78
2022/03/04 06:08:48;;;;;;;;;;;;;;;-3.16;100.00;98765.06;10334871;28;19980;-78
2022/03/04 06:13:52;;;;;;;;;;;;;;;-2.95;100.00;98762.97;10383354;28;19977;-77
2022/03/04 06:18:53;;;;;;;;;;;;;;;-2.91;100.00;98753.63;10380414;28;19933;-76
2022/03/04 06:23:53;;;;;;;;;;;;;;;-2.78;100.00;98769.19;10368924;28;20016;-77
2022/03/04 06:28:53;;;;;;;;;;;;;;;-2.65;100.00;98779.53;10383908;28;19925;-77
2022/03/04 06:33:54;;;;;;;;;;;;;;;-2.42;100.00;98789.28;10350060;28;19968;-76
2022/03/04 06:38:54;;;;;;;;;;;;;;;-2.29;100.00;98783.00;10356669;28;19932;-76
2022/03/04 06:43:56;;;;;;;;;;;;;;;-2.13;100.00;98779.69;10378312;28;19933;-77
2022/03/04 06:48:58;;;;;;;;;;;;;;;-2.06;100.00;98782.22;10305988;28;19913;-80
2022/03/04 06:53:59;;;;;;;;;;;;;;;-1.93;100.00;98784.59;10360813;28;19926;-78
2022/03/04 06:59:03;;;;;;;;;;;;;;;-1.80;100.00;98794.13;10346520;28;19925;-80
2022/03/04 07:04:03;;;;;;;;;;;;;;;-1.66;100.00;98784.94;10399287;28;19925;-78
2022/03/04 07:09:04;;;;;;;;;;;;;;;-1.44;100.00;98793.84;10386589;28;19930;-77
2022/03/04 07:14:04;;;;;;;;;;;;;;;-1.18;100.00;98789.09;10382637;28;19909;-77
2022/03/04 07:19:04;;;;;;;;;;;;;;;-1.06;100.00;98786.41;10353556;28;19932;-77
2022/03/04 07:24:05;;;;;;;;;;;;;;;-0.84;100.00;98797.88;10316003;28;19932;-79
2022/03/04 07:29:06;;;;;;;;;;;;;;;-0.71;100.00;98797.59;10325802;28;19957;-79
2022/03/04 07:34:10;;;;;;;;;;;;;;;-0.55;100.00;98797.84;10348259;28;19932;-81
2022/03/04 07:39:10;;;;;;;;;;;;;;;-0.46;100.00;98799.84;10385487;28;19967;-78
2022/03/04 07:44:12;;;;;;;;;;;;;;;-0.06;100.00;98797.09;10287016;28;20424;-80
2022/03/04 07:49:12;;;;;;;;;;;;;;;0.34;100.00;98803.19;10352572;28;19973;-77
2022/03/04 07:54:12;;;;;;;;;;;;;;;0.31;100.00;98807.13;10378663;28;19967;-79
2022/03/04 07:59:13;;;;;;;;;;;;;;;0.58;100.00;98815.13;10362365;28;19929;-78
2022/03/04 08:04:15;;;;;;;;;;;;;;;0.32;100.00;98800.78;10358794;28;19930;-79
2022/03/04 08:09:15;;;;;;;;;;;;;;;0.91;100.00;98802.84;10335362;28;19937;-79
2022/03/04 08:14:22;;;;;;;;;;;;;;;1.05;100.00;98796.94;10317966;28;19964;-79
2022/03/04 08:19:30;;;;;;;;;;;;;;;0.80;100.00;98801.94;10318941;28;19930;-78
2022/03/04 08:24:32;;;;;;;;;;;;;;;0.87;100.00;98813.13;10329114;28;19925;-77
2022/03/04 08:29:34;;;;;;;;;;;;;;;1.09;100.00;98807.81;10364193;28;19961;-79
2022/03/04 08:34:36;;;;;;;;;;;;;;;1.51;100.00;98815.13;10370030;28;19922;-77
2022/03/04 08:39:36;;;;;;;;;;;;;;;1.21;100.00;98816.41;10375954;28;19914;-78
2022/03/04 08:44:38;;;;;;;;;;;;;;;1.46;100.00;98815.84;10383292;28;20053;-78
2022/03/04 08:49:39;;;;;;;;;;;;;;;1.40;100.00;98814.22;10346342;28;19996;-78
2022/03/04 08:54:43;;;;;;;;;;;;;;;1.58;100.00;98810.41;10391385;28;19940;-80
2022/03/04 08:59:45;;;;;;;;;;;;;;;1.17;100.00;98815.28;10379362;28;19936;-78
2022/03/04 09:04:45;;;;;;;;;;;;;;;1.47;100.00;98806.09;10366200;28;19925;-77
2022/03/04 09:09:46;;;;;;;;;;;;;;;1.64;100.00;98806.75;10333068;28;20020;-79
2022/03/04 09:14:46;;;;;;;;;;;;;;;1.68;100.00;98810.50;10344018;28;19922;-77
2022/03/04 09:19:47;;;;;;;;;;;;;;;1.98;100.00;98807.31;10329887;28;19921;-79
2022/03/04 09:24:47;;;;;;;;;;;;;;;1.76;100.00;98804.75;10318921;28;19921;-77
2022/03/04 09:29:47;;;;;;;;;;;;;;;1.94;100.00;98796.44;10342362;28;19931;-77
2022/03/04 09:34:49;;;;;;;;;;;;;;;2.30;100.00;98794.03;10338199;28;20420;-76
2022/03/04 09:39:49;;;;;;;;;;;;;;;2.66;100.00;98783.63;10336106;28;20472;-77
2022/03/04 09:44:51;;;;;;;;;;;;;;;2.91;100.00;98793.50;10356789;28;19921;-76
2022/03/04 09:49:53;;;;;;;;;;;;;;;2.91;100.00;98782.88;10316341;28;19961;-75
2022/03/04 09:54:54;;;;;;;;;;;;;;;2.73;100.00;98786.81;10344839;28;20007;-78
2022/03/04 09:59:55;;;;;;;;;;;;;;;2.60;100.00;98785.44;10332575;28;19926;-78
2022/03/04 10:04:58;;;;;;;;;;;;;;;2.95;100.00;98783.97;10374160;28;20377;-80
2022/03/04 10:10:00;;;;;;;;;;;;;;;3.24;100.00;98779.00;10361936;28;19944;-76
2022/03/04 10:15:02;;;;;;;;;;;;;;;3.24;100.00;98789.63;10366160;28;19925;-79
2022/03/04 10:20:04;;;;;;;;;;;;;;;3.69;100.00;98776.41;10390355;28;19922;-76
2022/03/04 10:25:20;;;;;;;;;;;;;;;3.66;100.00;98771.66;10382111;28;19925;-76
2022/03/04 10:30:31;;;;;;;;;;;;;;;4.27;100.00;98770.75;10384136;28;20387;-75
2022/03/04 10:35:31;;;;;;;;;;;;;;;4.39;93.04;98770.47;10332754;28;20257;-75
2022/03/04 10:40:43;;;;;;;;;;;;;;;4.90;93.46;98770.28;10344398;28;19967;-76
2022/03/04 10:45:45;;;;;;;;;;;;;;;4.46;87.39;98771.78;10358897;28;19933;-76
2022/03/04 10:50:46;;;;;;;;;;;;;;;4.93;83.94;98770.53;10354773;28;20329;-77
2022/03/04 10:55:54;;;;;;;;;;;;;;;5.42;79.66;98761.75;10341981;28;19922;-76
2022/03/04 11:00:56;;;;;;;;;;;;;;;5.76;82.66;98768.91;10346823;28;19925;-75
2022/03/04 11:05:58;;;;;;;;;;;;;;;6.16;74.66;98757.94;10348034;28;19926;-75
2022/03/04 11:11:00;;;;;;;;;;;;;;;6.68;66.25;98745.66;10343930;28;19984;-76
2022/03/04 11:16:02;;;;;;;;;;;;;;;6.68;61.63;98739.53;10378361;28;19947;-78
2022/03/04 11:21:04;;;;;;;;;;;;;;;6.68;63.86;98752.84;10353164;28;19993;-76
2022/03/04 11:26:20;;;;;;;;;;;;;;;6.92;59.45;98736.78;10354249;28;19922;-77
2022/03/04 11:31:22;;;;;;;;;;;;;;;7.10;61.55;98738.69;10320302;28;19974;-77
2022/03/04 11:36:36;;;;;;;;;;;;;;;6.84;62.04;98748.91;10363156;28;19932;-76
2022/03/04 11:42:00;;;;;;;;;;;;;;;6.44;64.09;98732.31;10364916;28;19931;-76
2022/03/04 11:47:10;;;;;;;;;;;;;;;6.96;64.40;98724.47;10344016;28;19924;-76
2022/03/04 11:52:26;;;;;;;;;;;;;;;7.29;56.71;98720.78;10359889;28;20070;-77
2022/03/04 11:57:31;;;;;;;;;;;;;;;7.56;61.07;98708.63;10366853;28;19925;-77
2022/03/04 12:02:38;;;;;;;;;;;;;;;7.89;56.40;98709.41;10341786;28;19936;-77
2022/03/04 12:07:42;;;;;;;;;;;;;;;8.03;55.25;98699.50;10335154;28;20432;-78
2022/03/04 12:13:01;;;;;;;;;;;;;;;7.96;52.84;98704.47;10340520;28;19925;-78
2022/03/04 12:18:23;;;;;;;;;;;;;;;8.70;51.66;98707.09;10362935;28;20005;-75
2022/03/04 12:23:32;;;;;;;;;;;;;;;7.69;50.12;98699.88;10339862;28;20029;-77
2022/03/04 12:28:35;;;;;;;;;;;;;;;6.81;54.33;98696.13;10362558;28;19962;-77
2022/03/04 12:33:38;;;;;;;;;;;;;;;6.50;53.92;98701.88;10325211;28;19932;-77
2022/03/04 12:38:44;;;;;;;;;;;;;;;6.85;54.81;98700.59;10345783;28;20652;-76
2022/03/04 12:43:46;;;;;;;;;;;;;;;8.17;52.85;98697.66;10352363;28;20391;-78
2022/03/04 12:48:49;;;;;;;;;;;;;;;8.90;53.17;98703.19;10330874;28;19944;-76
2022/03/04 12:53:49;;;;;;;;;;;;;;;8.53;49.27;98695.09;10350590;28;20577;-76
2022/03/04 12:58:51;;;;;;;;;;;;;;;8.35;47.02;98692.53;10337361;28;20039;-77
2022/03/04 13:03:54;;;;;;;;;;;;;;;9.29;44.50;98689.16;10365136;28;19925;-76
2022/03/04 13:08:58;;;;;;;;;;;;;;;7.19;47.10;98685.44;10349271;28;19926;-78
2022/03/04 13:14:07;;;;;;;;;;;;;;;6.71;49.96;98683.72;10347056;28;19929;-78
2022/03/04 13:19:09;;;;;;;;;;;;;;;6.30;54.22;98694.09;10361975;28;20016;-79
2022/03/04 13:24:11;;;;;;;;;;;;;;;6.35;52.31;98678.03;10384391;28;19922;-77
2022/03/04 13:29:14;;;;;;;;;;;;;;;6.59;51.08;98674.56;10368818;28;19954;-77
2022/03/04 13:34:14;;;;;;;;;;;;;;;7.49;47.76;98665.47;10376142;28;19921;-79
2022/03/04 13:39:19;;;;;;;;;;;;;;;7.89;48.99;98662.09;10385739;28;19917;-77
2022/03/04 13:44:19;;;;;;;;;;;;;;;8.09;46.37;98668.16;10394684;28;19945;-76
2022/03/04 13:49:21;;;;;;;;;;;;;;;7.77;48.81;98666.31;10356369;28;19932;-77
2022/03/04 13:54:23;;;;;;;;;;;;;;;7.31;46.65;98661.75;10382995;28;19914;-78
2022/03/04 13:59:23;;;;;;;;;;;;;;;7.55;45.91;98654.41;10400768;28;19977;-79
2022/03/04 14:04:24;;;;;;;;;;;;;;;7.47;45.38;98662.31;10399468;28;19918;-77
2022/03/04 14:09:24;;;;;;;;;;;;;;;7.08;44.85;98661.56;10340720;28;19985;-77
2022/03/04 14:14:25;;;;;;;;;;;;;;;6.95;44.69;98658.84;10312894;28;20466;-77
2022/03/04 14:19:25;;;;;;;;;;;;;;;7.34;45.78;98656.63;10353794;28;19933;-77
2022/03/04 14:24:26;;;;;;;;;;;;;;;7.26;47.34;98667.19;10361563;28;19922;-79
2022/03/04 14:29:26;;;;;;;;;;;;;;;7.04;47.38;98673.94;10361116;28;19964;-78
2022/03/04 14:34:27;;;;;;;;;;;;;;;6.65;47.70;98679.53;10376707;28;19922;-77
2022/03/04 14:39:28;;;;;;;;;;;;;;;6.49;51.10;98683.47;10362593;28;19925;-77
2022/03/04 14:44:28;;;;;;;;;;;;;;;6.43;51.34;98684.63;10331000;28;20632;-79
2022/03/04 14:49:28;;;;;;;;;;;;;;;6.25;52.58;98686.94;10349149;28;19921;-80
2022/03/04 14:54:30;;;;;;;;;;;;;;;6.18;50.11;98683.81;10396175;28;19914;-78
2022/03/04 14:59:32;;;;;;;;;;;;;;;6.08;50.64;98688.47;10361892;28;19933;-77
2022/03/04 15:04:35;;;;;;;;;;;;;;;6.04;50.80;98682.94;10355935;28;19922;-79
2022/03/04 15:09:38;;;;;;;;;;;;;;;5.79;49.58;98683.94;10383350;28;19921;-78
2022/03/04 15:14:39;;;;;;;;;;;;;;;5.87;50.14;98685.22;10402435;28;19921;-77
2022/03/04 15:19:40;;;;;;;;;;;;;;;5.88;52.14;98689.47;10367788;28;19921;-76
2022/03/04 15:24:41;;;;;;;;;;;;;;;5.86;53.08;98681.75;10340090;28;19933;-77
2022/03/04 15:29:41;;;;;;;;;;;;;;;5.82;52.55;98678.06;10328533;28;19933;-76
2022/03/04 15:34:42;;;;;;;;;;;;;;;5.57;51.78;98680.94;10346751;28;20049;-77
2022/03/04 15:39:42;;;;;;;;;;;;;;;5.57;53.75;98681.72;10350127;28;19930;-79
2022/03/04 15:44:42;;;;;;;;;;;;;;;5.31;53.93;98678.53;10326737;28;19993;-77
2022/03/04 15:49:46;;;;;;;;;;;;;;;4.99;55.28;98683.53;10367835;28;19930;-76
2022/03/04 15:54:47;;;;;;;;;;;;;;;4.82;55.59;98689.22;10371955;28;19925;-78
2022/03/04 15:59:49;;;;;;;;;;;;;;;4.71;57.20;98693.78;10358128;28;20020;-75
2022/03/04 16:04:50;;;;;;;;;;;;;;;4.57;56.33;98698.94;10373654;28;20451;-76
2022/03/04 16:09:51;;;;;;;;;;;;;;;4.38;57.75;98692.59;10354370;28;19921;-76
2022/03/04 16:14:53;;;;;;;;;;;;;;;4.27;55.95;98699.03;10354821;28;19926;-76
2022/03/04 16:19:54;;;;;;;;;;;;;;;4.13;58.16;98708.66;10318071;28;19922;-75
2022/03/04 16:24:55;;;;;;;;;;;;;;;4.11;59.66;98706.25;10337068;28;19926;-76
2022/03/04 16:29:55;;;;;;;;;;;;;;;3.90;62.14;98707.34;10348511;28;19921;-77
2022/03/04 16:34:59;;;;;;;;;;;;;;;3.73;65.59;98707.66;10364559;28;19988;-77
2022/03/04 16:40:00;;;;;;;;;;;;;;;3.72;64.98;98706.06;10347467;28;19937;-78
2022/03/04 16:45:03;;;;;;;;;;;;;;;3.45;65.40;98701.03;10365195;28;19922;-78
2022/03/04 16:50:04;;;;;;;;;;;;;;;3.35;65.86;98709.78;10349627;28;19929;-76
2022/03/04 16:55:06;;;;;;;;;;;;;;;3.34;72.06;98708.19;10373998;28;19947;-77
2022/03/04 17:00:09;;;;;;;;;;;;;;;3.13;78.36;98717.22;10344667;28;19933;-76
2022/03/04 17:05:13;;;;;;;;;;;;;;;3.07;81.46;98712.94;10337868;28;19937;-76
2022/03/04 17:10:14;;;;;;;;;;;;;;;2.93;84.75;98717.19;10374329;28;19929;-77
2022/03/04 17:15:14;;;;;;;;;;;;;;;2.77;89.00;98721.63;10369175;28;19924;-77
2022/03/04 17:20:14;;;;;;;;;;;;;;;2.81;93.33;98722.69;10387816;28;19909;-76
2022/03/04 17:25:16;;;;;;;;;;;;;;;2.74;100.00;98730.91;10371633;28;20001;-78
2022/03/04 17:30:17;;;;;;;;;;;;;;;2.53;100.00;98739.81;10354455;28;20024;-76
2022/03/04 17:35:17;;;;;;;;;;;;;;;2.32;100.00;98741.59;10357131;28;19925;-76
2022/03/04 17:40:18;;;;;;;;;;;;;;;2.23;100.00;98745.78;10352656;28;20010;-77
2022/03/04 17:45:18;;;;;;;;;;;;;;;2.02;100.00;98746.72;10340214;28;19936;-78
2022/03/04 17:50:19;;;;;;;;;;;;;;;1.89;100.00;98751.38;10350502;28;19972;-78
2022/03/04 17:55:19;;;;;;;;;;;;;;;1.87;100.00;98755.34;10341584;28;19921;-77
2022/03/04 18:00:22;;;;;;;;;;;;;;;1.80;100.00;98768.78;10344733;28;19921;-78
2022/03/04 18:05:23;;;;;;;;;;;;;;;1.68;100.00;98760.25;10364751;28;20420;-78
2022/03/04 18:10:23;;;;;;;;;;;;;;;1.48;100.00;98766.16;10334909;28;20017;-76
2022/03/04 18:15:25;;;;;;;;;;;;;;;1.30;100.00;98772.63;10337571;28;19940;-75
2022/03/04 18:20:27;;;;;;;;;;;;;;;1.38;100.00;98784.59;10352600;28;20417;-76
2022/03/04 18:25:27;;;;;;;;;;;;;;;1.27;100.00;98785.50;10339503;28;19934;-76
2022/03/04 18:30:29;;;;;;;;;;;;;;;1.08;100.00;98790.34;10329122;28;20382;-77
2022/03/04 18:35:30;;;;;;;;;;;;;;;1.15;100.00;98793.59;10360692;28;19922;-77
2022/03/04 18:40:33;;;;;;;;;;;;;;;1.08;100.00;98801.72;10361480;28;19980;-77
2022/03/04 18:45:52;;;;;;;;;;;;;;;1.08;100.00;98808.84;10348921;28;19933;-76
2022/03/04 18:50:54;;;;;;;;;;;;;;;1.02;100.00;98815.16;10374595;28;19929;-77
2022/03/04 18:55:55;;;;;;;;;;;;;;;0.82;100.00;98818.31;10360902;28;19937;-77
2022/03/04 19:00:59;;;;;;;;;;;;;;;0.72;100.00;98826.13;10358057;28;19926;-77
2022/03/04 19:06:02;;;;;;;;;;;;;;;0.55;100.00;98827.00;10314991;28;19949;-76
2022/03/04 19:11:03;;;;;;;;;;;;;;;0.49;100.00;98837.72;10342802;28;19932;-76
2022/03/04 19:16:05;;;;;;;;;;;;;;;0.43;100.00;98838.69;10358319;28;19956;-76
2022/03/04 19:21:05;;;;;;;;;;;;;;;0.34;100.00;98838.31;10343501;28;19921;-77
2022/03/04 19:26:06;;;;;;;;;;;;;;;0.20;100.00;98840.50;10377372;28;19933;-76
2022/03/04 19:31:08;;;;;;;;;;;;;;;0.14;100.00;98838.81;10335932;28;19945;-79
2022/03/04 19:36:09;;;;;;;;;;;;;;;0.01;100.00;98839.16;10354989;28;19968;-79
2022/03/04 19:41:09;;;;;;;;;;;;;;;-0.04;100.00;98850.41;10377631;28;19927;-81
2022/03/04 19:46:11;;;;;;;;;;;;;;;-0.17;100.00;98848.09;10364975;28;19951;-79
2022/03/04 19:51:13;;;;;;;;;;;;;;;-0.16;100.00;98851.53;10371002;28;19933;-78
2022/03/04 19:56:13;;;;;;;;;;;;;;;-0.21;100.00;98860.16;10388281;28;19925;-76
2022/03/04 20:01:13;;;;;;;;;;;;;;;-0.31;100.00;98857.34;10362529;28;19968;-77
2022/03/04 20:06:14;;;;;;;;;;;;;;;-0.39;100.00;98866.44;10356932;28;19953;-75
2022/03/04 20:11:14;;;;;;;;;;;;;;;-0.49;100.00;98865.44;10355937;28;19932;-77
2022/03/04 20:16:18;;;;;;;;;;;;;;;-0.54;100.00;98874.09;10333620;28;19926;-77
2022/03/04 20:21:19;;;;;;;;;;;;;;;-0.60;100.00;98875.81;10319125;28;20039;-77
2022/03/04 20:26:20;;;;;;;;;;;;;;;-0.68;100.00;98878.81;10378890;28;19921;-77
2022/03/04 20:31:21;;;;;;;;;;;;;;;-0.76;100.00;98891.56;10380759;28;19925;-77
2022/03/04 20:36:25;;;;;;;;;;;;;;;-0.82;100.00;98881.97;10401058;28;19925;-79
2022/03/04 20:41:26;;;;;;;;;;;;;;;-0.91;100.00;98882.34;10399168;28;19941;-77
2022/03/04 20:46:26;;;;;;;;;;;;;;;-1.00;100.00;98881.13;10373477;28;19921;-76
2022/03/04 20:51:27;;;;;;;;;;;;;;;-1.07;100.00;98877.81;10363025;28;20044;-77
2022/03/04 20:56:27;;;;;;;;;;;;;;;-1.08;100.00;98880.66;10352347;28;19929;-78
2022/03/04 21:01:29;;;;;;;;;;;;;;;-1.18;100.00;98876.78;10370229;28;20265;-78
2022/03/04 21:06:31;;;;;;;;;;;;;;;-1.28;100.00;98881.84;10325717;28;19930;-77
2022/03/04 21:11:31;;;;;;;;;;;;;;;-1.35;100.00;98886.44;10373887;28;19949;-78
2022/03/04 21:16:31;;;;;;;;;;;;;;;-1.41;100.00;98886.53;10337773;28;19944;-78
2022/03/04 21:21:36;;;;;;;;;;;;;;;-1.48;100.00;98881.38;10342056;28;19961;-79
2022/03/04 21:26:38;;;;;;;;;;;;;;;-1.48;100.00;98886.66;10348473;28;19972;-80
2022/03/04 21:31:39;;;;;;;;;;;;;;;-1.50;100.00;98883.44;10350408;28;19933;-80
2022/03/04 21:36:39;;;;;;;;;;;;;;;-1.54;100.00;98888.38;10331749;28;19941;-78
2022/03/04 21:41:41;;;;;;;;;;;;;;;-1.59;100.00;98890.09;10334817;28;19925;-77
2022/03/04 21:46:41;;;;;;;;;;;;;;;-1.68;100.00;98881.72;10330340;28;19922;-78
2022/03/04 21:51:43;;;;;;;;;;;;;;;-1.74;100.00;98894.00;10333160;28;19922;-78
2022/03/04 21:56:44;;;;;;;;;;;;;;;-1.74;100.00;98888.72;10345730;28;19961;-78
2022/03/04 22:01:44;;;;;;;;;;;;;;;-1.73;100.00;98892.16;10327538;28;19949;-79
2022/03/04 22:06:45;;;;;;;;;;;;;;;-1.78;100.00;98889.41;10347815;28;19921;-79
2022/03/04 22:11:45;;;;;;;;;;;;;;;-1.84;100.00;98887.66;10360861;28;19926;-76
2022/03/04 22:16:46;;;;;;;;;;;;;;;-1.84;100.00;98888.47;10302289;28;19926;-75
2022/03/04 22:21:49;;;;;;;;;;;;;;;-1.92;100.00;98883.56;10327783;28;19921;-79
2022/03/04 22:26:52;;;;;;;;;;;;;;;-1.97;100.00;98880.00;10319431;28;19921;-78
2022/03/04 22:31:53;;;;;;;;;;;;;;;-1.99;100.00;98885.50;10357157;28;19925;-77
2022/03/04 22:36:53;;;;;;;;;;;;;;;-1.96;100.00;98878.97;10347050;28;20372;-76
2022/03/04 22:41:54;;;;;;;;;;;;;;;-1.95;100.00;98880.56;10352383;28;19925;-78
2022/03/04 22:46:54;;;;;;;;;;;;;;;-2.01;100.00;98880.47;10357443;28;20395;-77
2022/03/04 22:51:54;;;;;;;;;;;;;;;-2.08;100.00;98876.31;10332904;28;19925;-76
2022/03/04 22:56:56;;;;;;;;;;;;;;;-2.06;100.00;98884.78;10348991;28;20281;-76
2022/03/04 23:01:57;;;;;;;;;;;;;;;-2.17;100.00;98882.94;10360090;28;19973;-76
2022/03/04 23:12:16;;;;;;;;;;;;;;;-2.26;100.00;98885.09;10323109;28;19925;-77
2022/03/04 23:17:17;;;;;;;;;;;;;;;-2.25;100.00;98885.88;10335778;28;20012;-77
2022/03/04 23:22:17;;;;;;;;;;;;;;;-2.27;100.00;98882.69;10356400;28;19949;-77
2022/03/04 23:27:18;;;;;;;;;;;;;;;-2.30;100.00;98876.03;10383049;28;19921;-77
2022/03/04 23:32:19;;;;;;;;;;;;;;;-2.36;100.00;98875.13;10369075;28;19933;-78
2022/03/04 23:37:20;;;;;;;;;;;;;;;-2.45;100.00;98878.28;10368654;28;19929;-77
2022/03/04 23:42:22;;;;;;;;;;;;;;;-2.60;100.00;98876.06;10361645;28;20418;-79
2022/03/04 23:47:22;;;;;;;;;;;;;;;-2.66;100.00;98879.56;10303526;28;19934;-77
2022/03/04 23:52:23;;;;;;;;;;;;;;;-2.72;100.00;98883.91;10311895;28;20041;-78
2022/03/04 23:57:26;;;;;;;;;;;;;;;-2.71;100.00;98882.06;10335654;28;20369;-76
